createdAt,value
2023-12-23T00:01:11.879Z,101015.59
2023-12-23T00:03:38.566Z,101009.47
2023-12-23T00:06:05.750Z,101013.81
2023-12-23T00:08:32.343Z,101011.94
2023-12-23T00:10:59.317Z,101018.06
2023-12-23T00:13:25.825Z,101015.44
2023-12-23T00:15:52.264Z,101019.88
2023-12-23T00:18:19.180Z,101017.16
2023-12-23T00:20:45.924Z,101013.56
2023-12-23T00:23:14.149Z,101007.44
2023-12-23T00:25:41.178Z,101017.16
2023-12-23T00:28:07.832Z,101009.13
2023-12-23T00:30:34.535Z,101000.22
2023-12-23T00:33:10.215Z,100991.44
2023-12-23T00:35:36.929Z,100997.50
2023-12-23T00:38:03.501Z,100988.72
2023-12-23T00:40:30.151Z,100989.56
2023-12-23T00:42:56.744Z,100981.69
2023-12-23T00:45:23.424Z,100985.22
2023-12-23T00:47:50.223Z,100989.63
2023-12-23T00:50:17.113Z,100987.88
2023-12-23T00:52:43.793Z,100987.88
2023-12-23T00:55:10.488Z,100982.56
2023-12-23T00:57:37.036Z,100978.03
2023-12-23T01:00:04.120Z,100975.47
2023-12-23T01:02:30.946Z,100976.25
2023-12-23T01:04:57.520Z,100974.63
2023-12-23T01:07:24.199Z,100970.25
2023-12-23T01:09:50.720Z,100963.16
2023-12-23T01:12:17.395Z,100969.53
2023-12-23T01:14:43.990Z,100956.28
2023-12-23T01:19:51.651Z,100961.56
2023-12-23T01:22:18.406Z,100965.91
2023-12-23T01:24:53.594Z,100965.06
2023-12-23T01:27:20.033Z,100948.34
2023-12-23T01:29:46.686Z,100951.06
2023-12-23T01:32:13.243Z,100940.47
2023-12-23T01:34:40.659Z,100932.53
2023-12-23T01:39:54.875Z,100931.75
2023-12-23T01:42:21.526Z,100922.91
2023-12-23T01:44:54.056Z,100914.19
2023-12-23T01:47:20.638Z,100919.31
2023-12-23T01:49:48.574Z,100914.84
2023-12-23T01:52:15.285Z,100912.22
2023-12-23T01:54:42.030Z,100919.13
2023-12-23T01:57:08.680Z,100914.69
2023-12-23T01:59:35.946Z,100912.03
2023-12-23T02:02:02.951Z,100908.47
2023-12-23T02:04:29.828Z,100900.53
2023-12-23T02:06:56.337Z,100896.16
2023-12-23T02:09:22.952Z,100894.28
2023-12-23T02:12:06.414Z,100896.06
2023-12-23T02:14:40.972Z,100889.06
2023-12-23T02:17:08.900Z,100889.16
2023-12-23T02:19:35.466Z,100883.75
2023-12-23T02:22:02.292Z,100877.63
2023-12-23T02:24:37.921Z,100872.44
2023-12-23T02:27:09.414Z,100874.25
2023-12-23T02:29:37.173Z,100852.19
2023-12-23T02:32:04.770Z,100854.75
2023-12-23T02:34:31.926Z,100853.81
2023-12-23T02:37:07.503Z,100859.09
2023-12-23T02:39:33.938Z,100840.56
2023-12-23T02:42:09.462Z,100838.78
2023-12-23T02:44:36.032Z,100829.06
2023-12-23T02:47:03.182Z,100820.94
2023-12-23T02:49:30.071Z,100820.81
2023-12-23T02:51:56.549Z,100822.44
2023-12-23T02:54:23.255Z,100820.38
2023-12-23T02:56:49.788Z,100802.31
2023-12-23T02:59:16.555Z,100807.16
2023-12-23T03:01:43.186Z,100809.44
2023-12-23T03:04:09.652Z,100796.28
2023-12-23T03:06:38.667Z,100783.22
2023-12-23T03:09:05.213Z,100785.41
2023-12-23T03:11:40.923Z,100788.38
2023-12-23T03:14:07.418Z,100785.00
2023-12-23T03:16:37.098Z,100769.22
2023-12-23T03:19:09.342Z,100764.28
2023-12-23T03:21:35.854Z,100762.47
2023-12-23T03:24:02.482Z,100769.94
2023-12-23T03:26:29.611Z,100765.94
2023-12-23T03:28:56.106Z,100733.31
2023-12-23T03:31:30.035Z,100752.19
2023-12-23T03:33:56.561Z,100741.59
2023-12-23T03:36:23.394Z,100754.84
2023-12-23T03:38:50.091Z,100745.56
2023-12-23T03:41:16.711Z,100730.47
2023-12-23T03:43:43.257Z,100732.59
2023-12-23T03:46:09.970Z,100726.91
2023-12-23T03:48:36.632Z,100750.66
2023-12-23T03:51:03.676Z,100733.47
2023-12-23T03:53:30.446Z,100727.31
2023-12-23T03:55:57.160Z,100722.88
2023-12-23T03:58:23.799Z,100729.66
2023-12-23T04:00:50.472Z,100733.91
2023-12-23T04:03:24.684Z,100719.47
2023-12-23T04:05:51.202Z,100719.38
2023-12-23T04:08:18.709Z,100723.75
2023-12-23T04:10:45.507Z,100718.88
2023-12-23T04:13:12.131Z,100695.63
2023-12-23T04:15:38.831Z,100703.16
2023-12-23T04:18:05.717Z,100712.06
2023-12-23T04:20:32.247Z,100704.63
2023-12-23T04:22:58.970Z,100712.28
2023-12-23T04:25:25.679Z,100693.72
2023-12-23T04:27:53.186Z,100701.88
2023-12-23T04:30:19.741Z,100686.69
2023-12-23T04:32:46.529Z,100685.63
2023-12-23T04:35:13.504Z,100691.78
2023-12-23T04:37:42.971Z,100687.22
2023-12-23T04:40:10.147Z,100704.53
2023-12-23T04:42:36.683Z,100681.38
2023-12-23T04:45:10.933Z,100669.69
2023-12-23T04:47:40.339Z,100690.94
2023-12-23T04:50:07.573Z,100682.84
2023-12-23T04:52:34.132Z,100678.28
2023-12-23T04:55:00.794Z,100660.41
2023-12-23T04:57:30.239Z,100672.84
2023-12-23T04:59:56.895Z,100679.00
2023-12-23T05:02:23.495Z,100670.31
2023-12-23T05:04:51.424Z,100657.44
2023-12-23T05:07:18.056Z,100665.09
2023-12-23T05:09:44.550Z,100674.53
2023-12-23T05:12:11.053Z,100669.22
2023-12-23T05:14:37.591Z,100669.31
2023-12-23T05:17:04.439Z,100624.22
2023-12-23T05:19:31.068Z,100670.47
2023-12-23T05:21:57.706Z,100639.47
2023-12-23T05:24:24.152Z,100658.38
2023-12-23T05:26:50.719Z,100659.56
2023-12-23T05:29:17.625Z,100682.81
2023-12-23T05:31:44.362Z,100644.16
2023-12-23T05:34:10.966Z,100662.13
2023-12-23T05:36:37.383Z,100626.53
2023-12-23T05:39:04.113Z,100650.66
2023-12-23T05:41:30.603Z,100665.84
2023-12-23T05:43:57.113Z,100671.25
2023-12-23T05:46:23.669Z,100661.81
2023-12-23T05:48:50.175Z,100657.97
2023-12-23T05:51:16.787Z,100671.03
2023-12-23T05:53:43.234Z,100691.22
2023-12-23T05:56:09.870Z,100663.59
2023-12-23T05:58:36.455Z,100646.19
2023-12-23T06:01:03.954Z,100661.50
2023-12-23T06:03:30.509Z,100652.78
2023-12-23T06:05:57.058Z,100676.56
2023-12-23T06:08:23.893Z,100645.66
2023-12-23T06:10:57.553Z,100648.44
2023-12-23T06:13:26.715Z,100643.22
2023-12-23T06:15:55.051Z,100659.28
2023-12-23T06:18:22.653Z,100666.28
2023-12-23T06:20:49.140Z,100653.75
2023-12-23T06:23:15.714Z,100641.81
2023-12-23T06:25:42.486Z,100670.94
2023-12-23T06:28:09.268Z,100649.69
2023-12-23T06:30:36.015Z,100652.44
2023-12-23T06:33:09.561Z,100653.53
2023-12-23T06:35:36.186Z,100655.97
2023-12-23T06:38:03.838Z,100652.88
2023-12-23T06:40:30.564Z,100645.97
2023-12-23T06:42:57.099Z,100655.63
2023-12-23T06:45:23.641Z,100638.00
2023-12-23T06:47:50.217Z,100653.94
2023-12-23T06:50:20.234Z,100641.50
2023-12-23T06:52:46.965Z,100638.97
2023-12-23T06:55:13.827Z,100628.34
2023-12-23T06:57:50.057Z,100639.81
2023-12-23T07:00:17.232Z,100619.28
2023-12-23T07:02:43.806Z,100642.13
2023-12-23T07:05:10.329Z,100653.81
2023-12-23T07:07:36.996Z,100647.66
2023-12-23T07:10:07.723Z,100657.00
2023-12-23T07:12:34.700Z,100655.63
2023-12-23T07:15:01.590Z,100647.66
2023-12-23T07:17:38.283Z,100654.53
2023-12-23T07:20:10.132Z,100639.25
2023-12-23T07:22:36.633Z,100658.22
2023-12-23T07:25:03.490Z,100663.31
2023-12-23T07:27:30.264Z,100666.59
2023-12-23T07:29:56.688Z,100675.41
2023-12-23T07:32:23.237Z,100669.25
2023-12-23T07:34:49.897Z,100671.06
2023-12-23T07:37:16.962Z,100672.75
2023-12-23T07:39:44.130Z,100664.56
2023-12-23T07:42:10.674Z,100667.22
2023-12-23T07:44:40.101Z,100682.09
2023-12-23T07:47:11.580Z,100675.50
2023-12-23T07:49:44.516Z,100678.06
2023-12-23T07:52:11.078Z,100672.72
2023-12-23T07:54:37.677Z,100658.78
2023-12-23T07:57:04.411Z,100672.72
2023-12-23T07:59:30.894Z,100667.19
2023-12-23T08:01:57.458Z,100668.66
2023-12-23T08:04:27.017Z,100665.25
2023-12-23T08:06:53.873Z,100635.78
2023-12-23T08:09:20.396Z,100683.31
2023-12-23T08:11:46.873Z,100677.03
2023-12-23T08:14:13.367Z,100678.13
2023-12-23T08:16:39.813Z,100675.09
2023-12-23T08:21:56.895Z,100680.66
2023-12-23T08:24:23.624Z,100674.34
2023-12-23T08:26:50.870Z,100687.94
2023-12-23T08:29:17.459Z,100697.13
2023-12-23T08:31:45.140Z,100687.31
2023-12-23T08:34:12.191Z,100702.31
2023-12-23T08:36:38.951Z,100690.84
2023-12-23T08:39:17.712Z,100691.69
2023-12-23T08:41:44.439Z,100689.00
2023-12-23T08:47:01.672Z,100704.25
2023-12-23T08:49:28.228Z,100702.53
2023-12-23T08:51:54.844Z,100700.72
2023-12-23T08:54:21.643Z,100703.28
2023-12-23T08:56:48.113Z,100720.91
2023-12-23T08:59:14.821Z,100734.00
2023-12-23T09:01:41.480Z,100722.28
2023-12-23T09:04:08.687Z,100741.50
2023-12-23T09:06:35.167Z,100728.22
2023-12-23T09:09:02.409Z,100731.00
2023-12-23T09:11:29.391Z,100717.59
2023-12-23T09:14:05.266Z,100741.28
2023-12-23T09:16:31.786Z,100723.66
2023-12-23T09:18:58.460Z,100728.97
2023-12-23T09:21:43.069Z,100762.91
2023-12-23T09:24:09.577Z,100751.22
2023-12-23T09:26:36.673Z,100743.75
2023-12-23T09:29:04.633Z,100748.34
2023-12-23T09:31:31.758Z,100739.72
2023-12-23T09:33:58.302Z,100772.38
2023-12-23T09:36:24.800Z,100747.97
2023-12-23T09:38:51.367Z,100754.41
2023-12-23T09:41:18.015Z,100744.69
2023-12-23T09:43:45.171Z,100742.88
2023-12-23T09:46:16.474Z,100754.50
2023-12-23T09:48:43.229Z,100751.94
2023-12-23T09:51:09.972Z,100759.06
2023-12-23T09:53:41.272Z,100748.34
2023-12-23T09:56:09.630Z,100776.38
2023-12-23T09:58:36.220Z,100759.81
2023-12-23T10:01:03.027Z,100767.03
2023-12-23T10:03:30.059Z,100765.97
2023-12-23T10:06:02.594Z,100761.41
2023-12-23T10:08:29.460Z,100759.50
2023-12-23T10:10:56.148Z,100752.22
2023-12-23T10:13:22.865Z,100769.03
2023-12-23T10:15:49.535Z,100769.03
2023-12-23T10:18:16.525Z,100759.13
2023-12-23T10:20:49.410Z,100762.63
2023-12-23T10:23:16.280Z,100752.97
2023-12-23T10:25:48.979Z,100751.16
2023-12-23T10:28:19.553Z,100753.59
2023-12-23T10:30:50.561Z,100761.69
2023-12-23T10:33:23.351Z,100750.94
2023-12-23T10:35:50.098Z,100753.34
2023-12-23T10:38:18.585Z,100770.81
2023-12-23T10:40:52.781Z,100765.34
2023-12-23T10:43:19.895Z,100765.34
2023-12-23T10:45:52.601Z,100776.84
2023-12-23T10:48:19.409Z,100764.38
2023-12-23T10:50:48.740Z,100778.44
2023-12-23T10:53:21.609Z,100783.97
2023-12-23T10:55:49.111Z,100777.38
2023-12-23T10:58:17.354Z,100788.13
2023-12-23T11:00:44.211Z,100784.38
2023-12-23T11:03:21.447Z,100795.88
2023-12-23T11:05:49.706Z,100774.69
2023-12-23T11:11:10.415Z,100769.28
2023-12-23T11:13:43.341Z,100780.63
2023-12-23T11:16:11.820Z,100767.09
2023-12-23T11:18:41.120Z,100772.31
2023-12-23T11:21:20.406Z,100778.41
2023-12-23T11:23:47.624Z,100779.34
2023-12-23T11:26:42.887Z,100787.09
2023-12-23T11:29:19.951Z,100778.03
2023-12-23T11:31:46.576Z,100789.53
2023-12-23T11:34:18.019Z,100790.38
2023-12-23T11:36:45.492Z,100776.22
2023-12-23T11:39:13.437Z,100754.00
2023-12-23T11:41:42.684Z,100764.50
2023-12-23T11:44:11.315Z,100780.59
2023-12-23T11:46:40.793Z,100781.22
2023-12-23T11:49:10.232Z,100786.19
2023-12-23T11:51:39.142Z,100771.91
2023-12-23T11:54:06.158Z,100764.78
2023-12-23T11:56:42.090Z,100767.06
2023-12-23T11:59:17.516Z,100787.53
2023-12-23T12:01:44.158Z,100728.97
2023-12-23T12:04:10.769Z,100766.97
2023-12-23T12:06:37.609Z,100776.56
2023-12-23T12:09:07.615Z,100783.31
2023-12-23T12:11:34.904Z,100808.25
2023-12-23T12:14:01.663Z,100787.81
2023-12-23T12:16:28.388Z,100771.84
2023-12-23T12:18:55.095Z,100785.16
2023-12-23T12:21:22.058Z,100791.44
2023-12-23T12:23:48.598Z,100792.16
2023-12-23T12:26:15.254Z,100787.72
2023-12-23T12:28:43.617Z,100784.19
2023-12-23T12:31:14.048Z,100793.75
2023-12-23T12:33:42.629Z,100788.41
2023-12-23T12:36:13.250Z,100778.63
2023-12-23T12:38:39.928Z,100783.84
2023-12-23T12:41:07.543Z,100777.78
2023-12-23T12:43:35.718Z,100777.91
2023-12-23T12:46:02.314Z,100779.97
2023-12-23T12:48:28.860Z,100780.66
2023-12-23T12:50:56.448Z,100795.28
2023-12-23T12:53:23.418Z,100772.41
2023-12-23T12:55:50.044Z,100797.47
2023-12-23T12:58:17.585Z,100791.25
2023-12-23T13:00:44.119Z,100810.13
2023-12-23T13:03:17.088Z,100807.59
2023-12-23T13:05:44.825Z,100804.94
2023-12-23T13:08:11.435Z,100821.88
2023-12-23T13:10:38.222Z,100794.28
2023-12-23T13:13:05.089Z,100813.44
2023-12-23T13:15:32.271Z,100782.34
2023-12-23T13:17:59.472Z,100793.22
2023-12-23T13:20:26.166Z,100801.31
2023-12-23T13:22:53.091Z,100798.63
2023-12-23T13:25:19.957Z,100799.38
2023-12-23T13:27:46.445Z,100799.38
2023-12-23T13:30:13.307Z,100809.19
2023-12-23T13:32:39.889Z,100811.84
2023-12-23T13:35:06.876Z,100817.66
2023-12-23T13:37:33.513Z,100824.09
2023-12-23T13:40:00.784Z,100813.53
2023-12-23T13:42:27.315Z,100823.34
2023-12-23T13:44:54.230Z,100842.81
2023-12-23T13:47:20.820Z,100832.28
2023-12-23T13:49:47.581Z,100834.97
2023-12-23T13:52:16.288Z,100849.97
2023-12-23T13:54:56.240Z,100841.97
2023-12-23T13:57:22.779Z,100847.16
2023-12-23T13:59:52.130Z,100855.38
2023-12-23T14:02:18.789Z,100844.03
2023-12-23T14:04:47.411Z,100860.00
2023-12-23T14:07:13.952Z,100847.63
2023-12-23T14:09:40.707Z,100852.94
2023-12-23T14:12:07.974Z,100846.78
2023-12-23T14:17:15.061Z,100841.44
2023-12-23T14:22:27.985Z,100847.84
2023-12-23T14:24:56.117Z,100847.97
2023-12-23T14:27:26.979Z,100847.13
2023-12-23T14:29:53.893Z,100849.88
2023-12-23T14:32:20.395Z,100844.69
2023-12-23T14:34:46.922Z,100862.44
2023-12-23T14:37:13.760Z,100851.81
2023-12-23T14:39:41.005Z,100845.88
2023-12-23T14:42:07.761Z,100880.59
2023-12-23T14:44:34.367Z,100861.75
2023-12-23T14:47:01.090Z,100863.66
2023-12-23T14:49:27.710Z,100864.63
2023-12-23T14:51:54.342Z,100873.53
2023-12-23T14:54:21.160Z,100871.84
2023-12-23T14:56:47.622Z,100877.19
2023-12-23T14:59:14.193Z,100881.66
2023-12-23T15:01:40.709Z,100882.59
2023-12-23T15:04:07.349Z,100901.34
2023-12-23T15:06:33.788Z,100880.81
2023-12-23T15:09:00.404Z,100888.03
2023-12-23T15:11:27.234Z,100898.69
2023-12-23T15:13:54.065Z,100881.88
2023-12-23T15:16:21.554Z,100893.47
2023-12-23T15:18:48.300Z,100884.53
2023-12-23T15:21:14.793Z,100875.94
2023-12-23T15:23:41.688Z,100882.94
2023-12-23T15:26:08.740Z,100885.69
2023-12-23T15:28:37.052Z,100896.13
2023-12-23T15:31:14.361Z,100906.66
2023-12-23T15:33:48.385Z,100904.84
2023-12-23T15:36:34.212Z,100902.09
2023-12-23T15:39:05.667Z,100921.44
2023-12-23T15:44:27.034Z,100907.19
2023-12-23T15:44:53.846Z,100907.28
2023-12-23T15:50:17.747Z,100905.38
2023-12-23T15:50:41.642Z,100894.59
2023-12-23T15:53:08.443Z,100908.78
2023-12-23T15:55:45.629Z,100905.03
2023-12-23T15:58:14.735Z,100907.69
2023-12-23T16:01:04.054Z,100968.19
2023-12-23T16:06:14.098Z,100924.75
2023-12-23T16:06:28.604Z,100919.63
2023-12-23T16:09:08.265Z,100915.28
2023-12-23T16:12:08.440Z,100911.88
2023-12-23T16:14:56.109Z,100910.94
2023-12-23T16:17:52.828Z,100908.25
2023-12-23T16:20:30.778Z,100896.03
2023-12-23T16:23:09.172Z,100906.75
2023-12-23T16:26:04.260Z,100918.38
2023-12-23T16:31:18.741Z,100912.09
2023-12-23T16:34:08.304Z,100930.84
2023-12-23T16:40:11.724Z,100899.00
2023-12-23T16:42:50.549Z,100915.84
2023-12-23T16:45:26.971Z,100914.13
2023-12-23T16:48:01.127Z,100900.81
2023-12-23T16:50:33.927Z,100898.06
2023-12-23T16:53:36.665Z,100897.22
2023-12-23T16:56:03.309Z,100928.28
2023-12-23T16:58:46.632Z,100913.06
2023-12-23T17:01:20.691Z,100902.53
2023-12-23T17:04:06.414Z,100899.13
2023-12-23T17:07:22.285Z,100900.59
2023-12-23T17:09:41.491Z,100899.88
2023-12-23T17:15:01.202Z,100898.91
2023-12-23T17:15:30.026Z,100903.16
2023-12-23T17:18:15.569Z,100891.78
2023-12-23T17:21:53.604Z,100892.75
2023-12-23T17:24:40.821Z,100894.44
2023-12-23T17:27:49.202Z,100904.09
2023-12-23T17:30:47.803Z,100900.72
2023-12-23T17:33:33.232Z,100908.59
2023-12-23T17:35:32.321Z,100903.25
2023-12-23T17:38:00.584Z,100918.28
2023-12-23T17:40:27.422Z,100912.97
2023-12-23T17:42:54.184Z,100912.22
2023-12-23T17:45:20.792Z,100917.41
2023-12-23T17:47:49.993Z,100926.75
2023-12-23T17:50:18.837Z,100909.13
2023-12-23T17:52:45.476Z,100913.69
2023-12-23T17:55:12.096Z,100900.28
2023-12-23T17:57:38.830Z,100889.50
2023-12-23T18:00:05.970Z,100888.56
2023-12-23T18:02:33.115Z,100896.56
2023-12-23T18:04:59.732Z,100894.59
2023-12-23T18:07:26.461Z,100907.91
2023-12-23T18:09:52.996Z,100903.25
2023-12-23T18:12:19.632Z,100902.28
2023-12-23T18:14:46.303Z,100891.72
2023-12-23T18:17:12.813Z,100890.78
2023-12-23T18:19:39.443Z,100892.59
2023-12-23T18:22:06.168Z,100890.03
2023-12-23T18:24:32.891Z,100883.13
2023-12-23T18:27:00.350Z,100883.97
2023-12-23T18:29:27.142Z,100891.00
2023-12-23T18:32:02.818Z,100891.84
2023-12-23T18:34:29.536Z,100899.72
2023-12-23T18:36:56.101Z,100908.66
2023-12-23T18:39:25.057Z,100890.16
2023-12-23T18:41:51.628Z,100887.28
2023-12-23T18:44:18.456Z,100887.69
2023-12-23T18:46:45.026Z,100900.28
2023-12-23T18:49:11.822Z,100886.97
2023-12-23T18:51:38.537Z,100856.97
2023-12-23T18:54:05.076Z,100902.31
2023-12-23T18:56:31.653Z,100907.88
2023-12-23T18:58:58.759Z,100902.94
2023-12-23T19:01:25.365Z,100885.44
2023-12-23T19:03:53.715Z,100907.88
2023-12-23T19:06:20.153Z,100899.03
2023-12-23T19:08:52.381Z,100908.00
2023-12-23T19:11:22.290Z,100904.59
2023-12-23T19:13:50.362Z,100909.59
2023-12-23T19:16:17.111Z,100891.91
2023-12-23T19:18:43.923Z,100904.97
2023-12-23T19:21:10.455Z,100908.88
2023-12-23T19:23:38.546Z,100891.84
2023-12-23T19:26:05.239Z,100902.50
2023-12-23T19:28:43.522Z,100890.16
2023-12-23T19:31:15.794Z,100897.19
2023-12-23T19:33:51.569Z,100895.25
2023-12-23T19:36:58.517Z,100881.97
2023-12-23T19:39:25.037Z,100886.31
2023-12-23T19:41:51.615Z,100902.91
2023-12-23T19:44:23.087Z,100892.25
2023-12-23T19:46:55.754Z,100889.25
2023-12-23T19:49:22.490Z,100889.59
2023-12-23T19:51:53.277Z,100877.25
2023-12-23T19:54:20.079Z,100895.88
2023-12-23T19:56:46.952Z,100885.00
2023-12-23T19:59:13.647Z,100897.69
2023-12-23T20:01:40.562Z,100890.78
2023-12-23T20:04:07.122Z,100873.84
2023-12-23T20:06:45.242Z,100879.38
2023-12-23T20:09:13.075Z,100874.19
2023-12-23T20:11:42.736Z,100881.31
2023-12-23T20:14:19.027Z,100880.38
2023-12-23T20:16:49.015Z,100877.06
2023-12-23T20:19:17.861Z,100874.50
2023-12-23T20:21:56.461Z,100870.41
2023-12-23T20:24:23.406Z,100868.44
2023-12-23T20:26:53.174Z,100865.69
2023-12-23T20:29:36.688Z,100872.19
2023-12-23T20:32:04.596Z,100871.47
2023-12-23T20:34:31.355Z,100865.47
2023-12-23T20:37:10.929Z,100869.13
2023-12-23T20:40:07.689Z,100860.16
2023-12-23T20:42:41.405Z,100870.09
2023-12-23T20:45:10.562Z,100877.84
2023-12-23T20:47:37.275Z,100870.41
2023-12-23T20:50:15.762Z,100892.63
2023-12-23T20:52:43.996Z,100886.44
2023-12-23T20:55:13.440Z,100890.09
2023-12-23T20:57:39.949Z,100888.28
2023-12-23T21:00:21.098Z,100889.97
2023-12-23T21:02:47.926Z,100887.19
2023-12-23T21:05:14.671Z,100881.03
2023-12-23T21:07:42.644Z,100866.97
2023-12-23T21:10:18.399Z,100864.31
2023-12-23T21:12:48.246Z,100864.41
2023-12-23T21:15:33.301Z,100864.78
2023-12-23T21:18:12.428Z,100855.19
2023-12-23T21:20:39.461Z,100864.78
2023-12-23T21:23:15.106Z,100842.97
2023-12-23T21:25:41.617Z,100831.47
2023-12-23T21:28:08.376Z,100832.63
2023-12-23T21:30:34.886Z,100840.75
2023-12-23T21:33:01.718Z,100826.59
2023-12-23T21:35:28.378Z,100826.69
2023-12-23T21:37:55.097Z,100817.25
2023-12-23T21:40:21.582Z,100805.03
2023-12-23T21:42:48.134Z,100796.19
2023-12-23T21:45:15.016Z,100810.56
2023-12-23T21:47:48.153Z,100814.69
2023-12-23T21:50:15.741Z,100791.09
2023-12-23T21:52:46.018Z,100808.75
2023-12-23T21:55:12.611Z,100800.03
2023-12-23T21:57:39.152Z,100806.72
2023-12-23T22:00:06.888Z,100799.69
2023-12-23T22:02:45.776Z,100803.44
2023-12-23T22:05:12.382Z,100803.56
2023-12-23T22:07:39.196Z,100806.31
2023-12-23T22:10:06.404Z,100808.88
2023-12-23T22:12:32.846Z,100780.78
2023-12-23T22:14:59.467Z,100791.03
2023-12-23T22:17:25.974Z,100768.16
2023-12-23T22:19:53.187Z,100769.00
2023-12-23T22:22:20.014Z,100767.41
2023-12-23T22:24:46.542Z,100760.41
2023-12-23T22:27:13.138Z,100761.47
2023-12-23T22:29:40.636Z,100763.28
2023-12-23T22:32:07.357Z,100756.38
2023-12-23T22:34:34.000Z,100756.50
2023-12-23T22:37:00.609Z,100776.06
2023-12-23T22:39:27.368Z,100756.28
2023-12-23T22:41:55.571Z,100764.03
2023-12-23T22:44:24.598Z,100775.38
2023-12-23T22:46:51.263Z,100785.31
2023-12-23T22:49:18.409Z,100807.28
2023-12-23T22:51:45.241Z,100809.84
2023-12-23T22:54:11.852Z,100799.09
2023-12-23T22:56:40.120Z,100788.47
2023-12-23T22:59:17.493Z,100800.06
2023-12-23T23:01:44.174Z,100798.16
2023-12-23T23:04:12.150Z,100808.78
2023-12-23T23:06:38.639Z,100815.69
2023-12-23T23:09:13.842Z,100801.34
2023-12-23T23:11:40.359Z,100800.47
2023-12-23T23:14:06.895Z,100816.41
2023-12-23T23:16:33.460Z,100824.94
2023-12-23T23:19:05.927Z,100780.69
2023-12-23T23:21:32.947Z,100797.38
2023-12-23T23:23:59.425Z,100801.13
2023-12-23T23:26:26.029Z,100803.66
2023-12-23T23:28:52.885Z,100805.47
2023-12-23T23:31:20.908Z,100798.34
2023-12-23T23:33:47.726Z,100807.91
2023-12-23T23:36:16.852Z,100813.97
2023-12-23T23:38:43.675Z,100810.34
2023-12-23T23:41:11.461Z,100804.19
2023-12-23T23:43:38.421Z,100790.88
2023-12-23T23:46:07.825Z,100785.34
2023-12-23T23:48:34.349Z,100794.91
2023-12-23T23:51:00.830Z,100794.06
2023-12-23T23:53:27.505Z,100798.41
2023-12-23T23:55:54.133Z,100803.81
2023-12-23T23:58:20.618Z,100788.53
